sensor_id;sensor_type;location;lat;lon;timestamp;P1;durP1;ratioP1;P2;durP2;ratioP2
59418;SDS011;45224;50.904;6.038;2022-11-20T00:00:47;92.83;;;26.33;;
59418;SDS011;45224;50.904;6.038;2022-11-20T00:02:17;75.87;;;24.07;;
59418;SDS011;45224;50.904;6.038;2022-11-20T00:03:48;82.23;;;25.50;;
59418;SDS011;45224;50.904;6.038;2022-11-20T00:05:19;79.15;;;25.52;;
59418;SDS011;45224;50.904;6.038;2022-11-20T00:06:50;80.47;;;25.27;;
59418;SDS011;45224;50.904;6.038;2022-11-20T00:08:21;79.97;;;24.63;;
59418;SDS011;45224;50.904;6.038;2022-11-20T00:09:51;92.63;;;25.47;;
59418;SDS011;45224;50.904;6.038;2022-11-20T00:11:22;81.53;;;24.93;;
59418;SDS011;45224;50.904;6.038;2022-11-20T00:12:54;87.72;;;25.00;;
59418;SDS011;45224;50.904;6.038;2022-11-20T00:14:25;83.90;;;25.73;;
59418;SDS011;45224;50.904;6.038;2022-11-20T00:15:59;84.43;;;23.87;;
59418;SDS011;45224;50.904;6.038;2022-11-20T00:17:32;89.80;;;26.55;;
59418;SDS011;45224;50.904;6.038;2022-11-20T00:19:02;91.67;;;26.47;;
59418;SDS011;45224;50.904;6.038;2022-11-20T00:20:33;93.73;;;26.97;;
59418;SDS011;45224;50.904;6.038;2022-11-20T00:22:03;101.70;;;27.13;;
59418;SDS011;45224;50.904;6.038;2022-11-20T00:23:33;96.90;;;27.07;;
59418;SDS011;45224;50.904;6.038;2022-11-20T00:25:04;94.18;;;26.30;;
59418;SDS011;45224;50.904;6.038;2022-11-20T00:26:35;88.50;;;25.90;;
59418;SDS011;45224;50.904;6.038;2022-11-20T00:28:05;106.77;;;29.43;;
59418;SDS011;45224;50.904;6.038;2022-11-20T00:29:36;91.03;;;26.77;;
59418;SDS011;45224;50.904;6.038;2022-11-20T00:31:08;102.20;;;28.20;;
59418;SDS011;45224;50.904;6.038;2022-11-20T00:32:43;100.53;;;28.00;;
59418;SDS011;45224;50.904;6.038;2022-11-20T00:34:13;104.63;;;30.57;;
59418;SDS011;45224;50.904;6.038;2022-11-20T00:35:44;103.03;;;28.00;;
59418;SDS011;45224;50.904;6.038;2022-11-20T00:37:14;96.53;;;27.27;;
59418;SDS011;45224;50.904;6.038;2022-11-20T00:38:45;100.03;;;27.00;;
59418;SDS011;45224;50.904;6.038;2022-11-20T00:40:16;107.35;;;30.52;;
59418;SDS011;45224;50.904;6.038;2022-11-20T00:41:46;95.10;;;26.33;;
59418;SDS011;45224;50.904;6.038;2022-11-20T00:43:17;92.67;;;25.53;;
59418;SDS011;45224;50.904;6.038;2022-11-20T00:44:47;111.37;;;29.87;;
59418;SDS011;45224;50.904;6.038;2022-11-20T00:46:19;104.87;;;29.23;;
59418;SDS011;45224;50.904;6.038;2022-11-20T00:47:51;94.00;;;27.77;;
59418;SDS011;45224;50.904;6.038;2022-11-20T00:49:21;92.33;;;26.33;;
59418;SDS011;45224;50.904;6.038;2022-11-20T00:50:52;92.50;;;26.57;;
59418;SDS011;45224;50.904;6.038;2022-11-20T00:52:23;84.50;;;26.63;;
59418;SDS011;45224;50.904;6.038;2022-11-20T00:53:57;88.43;;;24.13;;
59418;SDS011;45224;50.904;6.038;2022-11-20T00:55:28;79.72;;;23.80;;
59418;SDS011;45224;50.904;6.038;2022-11-20T00:56:58;79.93;;;23.03;;
59418;SDS011;45224;50.904;6.038;2022-11-20T00:58:29;79.93;;;25.10;;
59418;SDS011;45224;50.904;6.038;2022-11-20T01:00:10;83.65;;;23.83;;
59418;SDS011;45224;50.904;6.038;2022-11-20T01:01:41;80.57;;;24.30;;
59418;SDS011;45224;50.904;6.038;2022-11-20T01:03:11;80.13;;;25.00;;
59418;SDS011;45224;50.904;6.038;2022-11-20T01:04:42;75.93;;;24.23;;
59418;SDS011;45224;50.904;6.038;2022-11-20T01:06:19;78.07;;;24.60;;
59418;SDS011;45224;50.904;6.038;2022-11-20T01:07:54;79.20;;;24.83;;
59418;SDS011;45224;50.904;6.038;2022-11-20T01:09:24;85.00;;;24.60;;
59418;SDS011;45224;50.904;6.038;2022-11-20T01:10:58;79.40;;;24.37;;
59418;SDS011;45224;50.904;6.038;2022-11-20T01:12:32;77.72;;;23.08;;
59418;SDS011;45224;50.904;6.038;2022-11-20T01:14:03;86.77;;;25.70;;
59418;SDS011;45224;50.904;6.038;2022-11-20T01:15:36;74.05;;;23.48;;
59418;SDS011;45224;50.904;6.038;2022-11-20T01:17:06;75.40;;;23.90;;
59418;SDS011;45224;50.904;6.038;2022-11-20T01:18:38;82.03;;;24.13;;
59418;SDS011;45224;50.904;6.038;2022-11-20T01:20:10;71.90;;;22.98;;
59418;SDS011;45224;50.904;6.038;2022-11-20T01:21:41;96.00;;;25.58;;
59418;SDS011;45224;50.904;6.038;2022-11-20T01:23:13;87.43;;;26.92;;
59418;SDS011;45224;50.904;6.038;2022-11-20T01:24:43;83.40;;;26.03;;
59418;SDS011;45224;50.904;6.038;2022-11-20T01:26:16;77.93;;;22.90;;
59418;SDS011;45224;50.904;6.038;2022-11-20T01:27:47;86.47;;;24.88;;
59418;SDS011;45224;50.904;6.038;2022-11-20T01:29:22;78.53;;;25.70;;
59418;SDS011;45224;50.904;6.038;2022-11-20T01:30:54;83.35;;;25.00;;
59418;SDS011;45224;50.904;6.038;2022-11-20T01:32:24;76.47;;;24.00;;
59418;SDS011;45224;50.904;6.038;2022-11-20T01:33:56;71.10;;;24.03;;
59418;SDS011;45224;50.904;6.038;2022-11-20T01:35:27;73.13;;;23.63;;
59418;SDS011;45224;50.904;6.038;2022-11-20T01:36:58;74.63;;;24.77;;
59418;SDS011;45224;50.904;6.038;2022-11-20T01:38:28;71.43;;;24.30;;
59418;SDS011;45224;50.904;6.038;2022-11-20T01:39:59;89.80;;;24.77;;
59418;SDS011;45224;50.904;6.038;2022-11-20T01:41:29;72.53;;;23.37;;
59418;SDS011;45224;50.904;6.038;2022-11-20T01:43:20;63.17;;;22.10;;
59418;SDS011;45224;50.904;6.038;2022-11-20T01:44:55;64.82;;;21.48;;
59418;SDS011;45224;50.904;6.038;2022-11-20T01:46:28;63.63;;;22.15;;
59418;SDS011;45224;50.904;6.038;2022-11-20T01:47:58;65.67;;;22.13;;
59418;SDS011;45224;50.904;6.038;2022-11-20T01:49:42;62.37;;;21.83;;
59418;SDS011;45224;50.904;6.038;2022-11-20T01:51:20;63.55;;;21.45;;
59418;SDS011;45224;50.904;6.038;2022-11-20T01:53:00;69.38;;;22.63;;
59418;SDS011;45224;50.904;6.038;2022-11-20T01:54:36;69.78;;;22.85;;
59418;SDS011;45224;50.904;6.038;2022-11-20T01:56:12;64.85;;;21.30;;
59418;SDS011;45224;50.904;6.038;2022-11-20T01:57:44;69.30;;;22.38;;
59418;SDS011;45224;50.904;6.038;2022-11-20T01:59:18;63.28;;;22.52;;
59418;SDS011;45224;50.904;6.038;2022-11-20T02:00:49;63.38;;;21.13;;
59418;SDS011;45224;50.904;6.038;2022-11-20T02:02:20;59.47;;;20.43;;
59418;SDS011;45224;50.904;6.038;2022-11-20T02:03:51;74.72;;;22.95;;
59418;SDS011;45224;50.904;6.038;2022-11-20T02:05:32;67.72;;;23.70;;
59418;SDS011;45224;50.904;6.038;2022-11-20T02:07:09;66.38;;;21.88;;
59418;SDS011;45224;50.904;6.038;2022-11-20T02:08:40;63.92;;;20.67;;
59418;SDS011;45224;50.904;6.038;2022-11-20T02:10:11;64.40;;;21.27;;
59418;SDS011;45224;50.904;6.038;2022-11-20T02:11:41;64.25;;;22.85;;
59418;SDS011;45224;50.904;6.038;2022-11-20T02:13:12;60.50;;;21.50;;
59418;SDS011;45224;50.904;6.038;2022-11-20T02:15:01;67.45;;;22.45;;
59418;SDS011;45224;50.904;6.038;2022-11-20T02:16:43;66.53;;;22.37;;
59418;SDS011;45224;50.904;6.038;2022-11-20T02:18:17;64.28;;;22.50;;
59418;SDS011;45224;50.904;6.038;2022-11-20T02:19:49;62.58;;;21.15;;
59418;SDS011;45224;50.904;6.038;2022-11-20T02:23:00;62.93;;;23.27;;
59418;SDS011;45224;50.904;6.038;2022-11-20T02:24:38;71.35;;;21.83;;
59418;SDS011;45224;50.904;6.038;2022-11-20T02:26:10;61.60;;;21.02;;
59418;SDS011;45224;50.904;6.038;2022-11-20T02:27:44;75.10;;;22.40;;
59418;SDS011;45224;50.904;6.038;2022-11-20T02:29:15;65.97;;;21.50;;
59418;SDS011;45224;50.904;6.038;2022-11-20T02:30:53;67.35;;;21.55;;
59418;SDS011;45224;50.904;6.038;2022-11-20T02:32:25;65.70;;;20.73;;
59418;SDS011;45224;50.904;6.038;2022-11-20T02:33:57;73.45;;;23.08;;
59418;SDS011;45224;50.904;6.038;2022-11-20T02:36:58;74.30;;;24.97;;
59418;SDS011;45224;50.904;6.038;2022-11-20T02:38:29;70.43;;;22.17;;
59418;SDS011;45224;50.904;6.038;2022-11-20T02:40:00;61.90;;;20.63;;
59418;SDS011;45224;50.904;6.038;2022-11-20T02:41:34;67.93;;;21.35;;
59418;SDS011;45224;50.904;6.038;2022-11-20T02:43:06;70.97;;;22.10;;
59418;SDS011;45224;50.904;6.038;2022-11-20T02:44:37;66.85;;;22.58;;
59418;SDS011;45224;50.904;6.038;2022-11-20T02:46:07;69.53;;;22.50;;
59418;SDS011;45224;50.904;6.038;2022-11-20T02:47:38;66.05;;;21.50;;
59418;SDS011;45224;50.904;6.038;2022-11-20T02:49:08;74.67;;;21.93;;
59418;SDS011;45224;50.904;6.038;2022-11-20T02:50:39;75.53;;;21.43;;
59418;SDS011;45224;50.904;6.038;2022-11-20T02:52:10;69.00;;;23.08;;
59418;SDS011;45224;50.904;6.038;2022-11-20T02:53:40;70.37;;;23.20;;
59418;SDS011;45224;50.904;6.038;2022-11-20T02:55:11;72.60;;;22.40;;
59418;SDS011;45224;50.904;6.038;2022-11-20T02:56:41;64.10;;;20.85;;
59418;SDS011;45224;50.904;6.038;2022-11-20T02:58:12;66.72;;;21.70;;
59418;SDS011;45224;50.904;6.038;2022-11-20T02:59:43;65.80;;;20.57;;
59418;SDS011;45224;50.904;6.038;2022-11-20T03:01:13;67.90;;;20.67;;
59418;SDS011;45224;50.904;6.038;2022-11-20T03:02:44;68.63;;;21.45;;
59418;SDS011;45224;50.904;6.038;2022-11-20T03:04:14;65.72;;;19.98;;
59418;SDS011;45224;50.904;6.038;2022-11-20T03:05:45;61.23;;;19.40;;
59418;SDS011;45224;50.904;6.038;2022-11-20T03:07:15;61.57;;;21.17;;
59418;SDS011;45224;50.904;6.038;2022-11-20T03:08:46;65.93;;;20.77;;
59418;SDS011;45224;50.904;6.038;2022-11-20T03:10:16;62.50;;;20.60;;
59418;SDS011;45224;50.904;6.038;2022-11-20T03:11:47;68.47;;;21.57;;
59418;SDS011;45224;50.904;6.038;2022-11-20T03:13:17;65.27;;;20.73;;
59418;SDS011;45224;50.904;6.038;2022-11-20T03:14:48;69.47;;;21.03;;
59418;SDS011;45224;50.904;6.038;2022-11-20T03:16:19;71.77;;;22.90;;
59418;SDS011;45224;50.904;6.038;2022-11-20T03:17:54;61.80;;;21.55;;
59418;SDS011;45224;50.904;6.038;2022-11-20T03:19:25;56.63;;;21.45;;
59418;SDS011;45224;50.904;6.038;2022-11-20T03:20:59;65.63;;;22.67;;
59418;SDS011;45224;50.904;6.038;2022-11-20T03:22:29;63.80;;;22.45;;
59418;SDS011;45224;50.904;6.038;2022-11-20T03:24:00;60.73;;;21.93;;
59418;SDS011;45224;50.904;6.038;2022-11-20T03:25:31;57.58;;;21.10;;
59418;SDS011;45224;50.904;6.038;2022-11-20T03:27:01;54.97;;;20.73;;
59418;SDS011;45224;50.904;6.038;2022-11-20T03:28:32;58.27;;;21.63;;
59418;SDS011;45224;50.904;6.038;2022-11-20T03:30:02;51.33;;;20.83;;
59418;SDS011;45224;50.904;6.038;2022-11-20T03:31:37;62.00;;;22.60;;
59418;SDS011;45224;50.904;6.038;2022-11-20T03:33:12;56.53;;;23.25;;
59418;SDS011;45224;50.904;6.038;2022-11-20T03:34:42;57.23;;;22.63;;
59418;SDS011;45224;50.904;6.038;2022-11-20T03:36:14;56.00;;;22.27;;
59418;SDS011;45224;50.904;6.038;2022-11-20T03:37:45;57.72;;;23.08;;
59418;SDS011;45224;50.904;6.038;2022-11-20T03:39:16;61.43;;;23.60;;
59418;SDS011;45224;50.904;6.038;2022-11-20T03:40:46;59.17;;;23.80;;
59418;SDS011;45224;50.904;6.038;2022-11-20T03:42:17;62.40;;;21.70;;
59418;SDS011;45224;50.904;6.038;2022-11-20T03:44:06;59.92;;;22.40;;
59418;SDS011;45224;50.904;6.038;2022-11-20T03:45:38;59.95;;;21.40;;
59418;SDS011;45224;50.904;6.038;2022-11-20T03:47:08;62.10;;;22.73;;
59418;SDS011;45224;50.904;6.038;2022-11-20T03:48:39;56.50;;;21.73;;
59418;SDS011;45224;50.904;6.038;2022-11-20T03:50:10;57.97;;;22.53;;
59418;SDS011;45224;50.904;6.038;2022-11-20T03:51:43;60.22;;;23.20;;
59418;SDS011;45224;50.904;6.038;2022-11-20T03:53:14;58.80;;;23.97;;
59418;SDS011;45224;50.904;6.038;2022-11-20T03:54:45;61.95;;;24.20;;
59418;SDS011;45224;50.904;6.038;2022-11-20T03:56:16;61.70;;;23.57;;
59418;SDS011;45224;50.904;6.038;2022-11-20T03:57:48;60.92;;;22.65;;
59418;SDS011;45224;50.904;6.038;2022-11-20T03:59:19;58.17;;;22.57;;
59418;SDS011;45224;50.904;6.038;2022-11-20T04:00:49;49.17;;;21.10;;
59418;SDS011;45224;50.904;6.038;2022-11-20T04:02:20;53.80;;;20.27;;
59418;SDS011;45224;50.904;6.038;2022-11-20T04:03:51;46.50;;;20.33;;
59418;SDS011;45224;50.904;6.038;2022-11-20T04:05:23;50.10;;;20.90;;
59418;SDS011;45224;50.904;6.038;2022-11-20T04:06:53;54.10;;;21.30;;
59418;SDS011;45224;50.904;6.038;2022-11-20T04:08:24;50.50;;;19.57;;
59418;SDS011;45224;50.904;6.038;2022-11-20T04:09:54;52.97;;;19.20;;
59418;SDS011;45224;50.904;6.038;2022-11-20T04:11:26;49.00;;;20.23;;
59418;SDS011;45224;50.904;6.038;2022-11-20T04:13:00;47.95;;;19.65;;
59418;SDS011;45224;50.904;6.038;2022-11-20T04:14:31;50.93;;;21.33;;
59418;SDS011;45224;50.904;6.038;2022-11-20T04:16:01;50.27;;;20.40;;
59418;SDS011;45224;50.904;6.038;2022-11-20T04:17:31;53.33;;;20.80;;
59418;SDS011;45224;50.904;6.038;2022-11-20T04:19:03;47.57;;;19.60;;
59418;SDS011;45224;50.904;6.038;2022-11-20T04:20:35;54.17;;;20.67;;
59418;SDS011;45224;50.904;6.038;2022-11-20T04:22:05;51.57;;;21.00;;
59418;SDS011;45224;50.904;6.038;2022-11-20T04:23:36;49.97;;;20.63;;
59418;SDS011;45224;50.904;6.038;2022-11-20T04:25:07;50.15;;;21.30;;
59418;SDS011;45224;50.904;6.038;2022-11-20T04:26:38;50.80;;;19.98;;
59418;SDS011;45224;50.904;6.038;2022-11-20T04:28:09;46.33;;;19.17;;
59418;SDS011;45224;50.904;6.038;2022-11-20T04:29:39;55.25;;;21.83;;
59418;SDS011;45224;50.904;6.038;2022-11-20T04:31:11;48.67;;;20.80;;
59418;SDS011;45224;50.904;6.038;2022-11-20T04:32:44;44.80;;;19.40;;
59418;SDS011;45224;50.904;6.038;2022-11-20T04:34:14;48.33;;;20.27;;
59418;SDS011;45224;50.904;6.038;2022-11-20T04:35:45;43.70;;;19.17;;
59418;SDS011;45224;50.904;6.038;2022-11-20T04:37:18;43.15;;;18.83;;
59418;SDS011;45224;50.904;6.038;2022-11-20T04:38:52;44.80;;;19.08;;
59418;SDS011;45224;50.904;6.038;2022-11-20T04:40:23;47.67;;;18.90;;
59418;SDS011;45224;50.904;6.038;2022-11-20T04:41:54;45.17;;;18.17;;
59418;SDS011;45224;50.904;6.038;2022-11-20T04:43:48;46.40;;;18.40;;
59418;SDS011;45224;50.904;6.038;2022-11-20T04:45:19;45.97;;;18.55;;
59418;SDS011;45224;50.904;6.038;2022-11-20T04:46:50;50.08;;;20.27;;
59418;SDS011;45224;50.904;6.038;2022-11-20T04:48:20;46.90;;;19.20;;
59418;SDS011;45224;50.904;6.038;2022-11-20T04:49:51;50.20;;;19.50;;
59418;SDS011;45224;50.904;6.038;2022-11-20T04:51:21;47.57;;;19.80;;
59418;SDS011;45224;50.904;6.038;2022-11-20T04:52:52;48.53;;;19.17;;
59418;SDS011;45224;50.904;6.038;2022-11-20T04:54:23;44.37;;;18.90;;
59418;SDS011;45224;50.904;6.038;2022-11-20T04:55:58;42.87;;;18.10;;
59418;SDS011;45224;50.904;6.038;2022-11-20T04:57:33;49.60;;;19.30;;
59418;SDS011;45224;50.904;6.038;2022-11-20T04:59:04;54.30;;;20.10;;
59418;SDS011;45224;50.904;6.038;2022-11-20T05:00:34;49.60;;;19.10;;
59418;SDS011;45224;50.904;6.038;2022-11-20T05:02:05;55.57;;;20.90;;
59418;SDS011;45224;50.904;6.038;2022-11-20T05:03:35;49.63;;;20.73;;
59418;SDS011;45224;50.904;6.038;2022-11-20T05:05:05;57.20;;;21.00;;
59418;SDS011;45224;50.904;6.038;2022-11-20T05:06:36;48.47;;;20.40;;
59418;SDS011;45224;50.904;6.038;2022-11-20T05:08:07;56.00;;;20.67;;
59418;SDS011;45224;50.904;6.038;2022-11-20T05:09:37;49.27;;;20.40;;
59418;SDS011;45224;50.904;6.038;2022-11-20T05:11:09;49.50;;;18.27;;
59418;SDS011;45224;50.904;6.038;2022-11-20T05:12:41;46.08;;;19.20;;
59418;SDS011;45224;50.904;6.038;2022-11-20T05:14:12;45.20;;;18.70;;
59418;SDS011;45224;50.904;6.038;2022-11-20T05:15:42;44.33;;;18.80;;
59418;SDS011;45224;50.904;6.038;2022-11-20T05:17:12;45.97;;;18.33;;
59418;SDS011;45224;50.904;6.038;2022-11-20T05:18:43;43.33;;;17.53;;
59418;SDS011;45224;50.904;6.038;2022-11-20T05:20:14;48.70;;;19.30;;
59418;SDS011;45224;50.904;6.038;2022-11-20T05:21:44;47.10;;;19.47;;
59418;SDS011;45224;50.904;6.038;2022-11-20T05:23:15;54.10;;;19.37;;
59418;SDS011;45224;50.904;6.038;2022-11-20T05:24:45;52.87;;;20.07;;
59418;SDS011;45224;50.904;6.038;2022-11-20T05:26:20;47.87;;;18.47;;
59418;SDS011;45224;50.904;6.038;2022-11-20T05:27:52;51.65;;;19.20;;
59418;SDS011;45224;50.904;6.038;2022-11-20T05:30:53;57.70;;;20.05;;
59418;SDS011;45224;50.904;6.038;2022-11-20T05:32:24;59.05;;;20.45;;
59418;SDS011;45224;50.904;6.038;2022-11-20T05:33:56;59.50;;;20.85;;
59418;SDS011;45224;50.904;6.038;2022-11-20T05:35:26;56.08;;;21.27;;
59418;SDS011;45224;50.904;6.038;2022-11-20T05:36:57;65.50;;;23.47;;
59418;SDS011;45224;50.904;6.038;2022-11-20T05:38:27;57.73;;;19.60;;
59418;SDS011;45224;50.904;6.038;2022-11-20T05:39:58;67.03;;;22.10;;
59418;SDS011;45224;50.904;6.038;2022-11-20T05:41:28;69.13;;;22.45;;
59418;SDS011;45224;50.904;6.038;2022-11-20T05:42:59;71.90;;;23.13;;
59418;SDS011;45224;50.904;6.038;2022-11-20T05:44:30;65.97;;;22.13;;
59418;SDS011;45224;50.904;6.038;2022-11-20T05:46:00;88.40;;;25.80;;
59418;SDS011;45224;50.904;6.038;2022-11-20T05:47:32;84.18;;;25.10;;
59418;SDS011;45224;50.904;6.038;2022-11-20T05:49:04;81.38;;;24.92;;
59418;SDS011;45224;50.904;6.038;2022-11-20T05:50:34;86.37;;;23.97;;
59418;SDS011;45224;50.904;6.038;2022-11-20T05:52:05;79.53;;;23.70;;
59418;SDS011;45224;50.904;6.038;2022-11-20T05:53:36;78.50;;;22.90;;
59418;SDS011;45224;50.904;6.038;2022-11-20T05:55:06;79.30;;;24.58;;
59418;SDS011;45224;50.904;6.038;2022-11-20T05:56:37;88.47;;;26.85;;
59418;SDS011;45224;50.904;6.038;2022-11-20T05:58:08;78.13;;;23.80;;
59418;SDS011;45224;50.904;6.038;2022-11-20T05:59:38;72.30;;;22.60;;
59418;SDS011;45224;50.904;6.038;2022-11-20T06:01:10;82.03;;;25.23;;
59418;SDS011;45224;50.904;6.038;2022-11-20T06:02:41;72.15;;;24.30;;
59418;SDS011;45224;50.904;6.038;2022-11-20T06:04:11;79.10;;;23.93;;
59418;SDS011;45224;50.904;6.038;2022-11-20T06:05:42;73.23;;;23.27;;
59418;SDS011;45224;50.904;6.038;2022-11-20T06:07:12;76.43;;;23.90;;
59418;SDS011;45224;50.904;6.038;2022-11-20T06:08:43;70.67;;;23.17;;
59418;SDS011;45224;50.904;6.038;2022-11-20T06:10:14;83.35;;;24.48;;
59418;SDS011;45224;50.904;6.038;2022-11-20T06:11:45;75.57;;;23.37;;
59418;SDS011;45224;50.904;6.038;2022-11-20T06:13:15;68.30;;;22.10;;
59418;SDS011;45224;50.904;6.038;2022-11-20T06:14:45;63.97;;;21.27;;
59418;SDS011;45224;50.904;6.038;2022-11-20T06:16:17;69.53;;;21.67;;
59418;SDS011;45224;50.904;6.038;2022-11-20T06:17:51;72.75;;;22.85;;
59418;SDS011;45224;50.904;6.038;2022-11-20T06:19:23;71.45;;;22.33;;
59418;SDS011;45224;50.904;6.038;2022-11-20T06:21:00;75.23;;;25.07;;
59418;SDS011;45224;50.904;6.038;2022-11-20T06:22:32;78.30;;;23.23;;
59418;SDS011;45224;50.904;6.038;2022-11-20T06:24:02;69.77;;;23.47;;
59418;SDS011;45224;50.904;6.038;2022-11-20T06:25:33;73.33;;;23.53;;
59418;SDS011;45224;50.904;6.038;2022-11-20T06:27:07;82.32;;;25.50;;
59418;SDS011;45224;50.904;6.038;2022-11-20T06:28:38;82.83;;;25.47;;
59418;SDS011;45224;50.904;6.038;2022-11-20T06:30:09;82.03;;;24.55;;
59418;SDS011;45224;50.904;6.038;2022-11-20T06:31:40;83.60;;;24.65;;
59418;SDS011;45224;50.904;6.038;2022-11-20T06:33:12;76.60;;;24.10;;
59418;SDS011;45224;50.904;6.038;2022-11-20T06:34:42;74.63;;;22.90;;
59418;SDS011;45224;50.904;6.038;2022-11-20T06:36:14;73.70;;;24.40;;
59418;SDS011;45224;50.904;6.038;2022-11-20T06:37:45;68.13;;;20.88;;
59418;SDS011;45224;50.904;6.038;2022-11-20T06:39:16;67.43;;;21.33;;
59418;SDS011;45224;50.904;6.038;2022-11-20T06:40:46;64.73;;;20.83;;
59418;SDS011;45224;50.904;6.038;2022-11-20T06:42:17;90.47;;;23.57;;
59418;SDS011;45224;50.904;6.038;2022-11-20T06:43:47;80.67;;;24.57;;
59418;SDS011;45224;50.904;6.038;2022-11-20T06:45:18;67.82;;;23.45;;
59418;SDS011;45224;50.904;6.038;2022-11-20T06:46:49;66.80;;;23.13;;
59418;SDS011;45224;50.904;6.038;2022-11-20T06:48:19;71.03;;;22.93;;
59418;SDS011;45224;50.904;6.038;2022-11-20T06:49:50;64.55;;;21.92;;
59418;SDS011;45224;50.904;6.038;2022-11-20T06:51:20;64.37;;;22.23;;
59418;SDS011;45224;50.904;6.038;2022-11-20T06:52:51;62.67;;;21.40;;
59418;SDS011;45224;50.904;6.038;2022-11-20T06:54:21;60.03;;;20.87;;
59418;SDS011;45224;50.904;6.038;2022-11-20T06:55:52;54.97;;;18.23;;
59418;SDS011;45224;50.904;6.038;2022-11-20T06:57:26;58.30;;;18.52;;
59418;SDS011;45224;50.904;6.038;2022-11-20T06:58:56;58.63;;;21.03;;
59418;SDS011;45224;50.904;6.038;2022-11-20T07:00:27;51.57;;;17.13;;
59418;SDS011;45224;50.904;6.038;2022-11-20T07:01:57;59.23;;;18.60;;
59418;SDS011;45224;50.904;6.038;2022-11-20T07:03:28;51.93;;;18.20;;
59418;SDS011;45224;50.904;6.038;2022-11-20T07:04:58;47.33;;;17.67;;
59418;SDS011;45224;50.904;6.038;2022-11-20T07:06:28;54.53;;;18.73;;
59418;SDS011;45224;50.904;6.038;2022-11-20T07:07:59;50.90;;;17.37;;
59418;SDS011;45224;50.904;6.038;2022-11-20T07:09:29;51.90;;;19.17;;
59418;SDS011;45224;50.904;6.038;2022-11-20T07:11:00;58.90;;;18.73;;
59418;SDS011;45224;50.904;6.038;2022-11-20T07:12:32;55.58;;;19.30;;
59418;SDS011;45224;50.904;6.038;2022-11-20T07:14:03;52.40;;;18.47;;
59418;SDS011;45224;50.904;6.038;2022-11-20T07:15:33;53.10;;;17.50;;
59418;SDS011;45224;50.904;6.038;2022-11-20T07:17:04;50.90;;;17.03;;
59418;SDS011;45224;50.904;6.038;2022-11-20T07:18:35;50.50;;;19.13;;
59418;SDS011;45224;50.904;6.038;2022-11-20T07:21:37;46.47;;;16.50;;
59418;SDS011;45224;50.904;6.038;2022-11-20T07:23:07;48.50;;;16.17;;
59418;SDS011;45224;50.904;6.038;2022-11-20T07:24:38;51.47;;;17.27;;
59418;SDS011;45224;50.904;6.038;2022-11-20T07:26:09;48.20;;;17.33;;
59418;SDS011;45224;50.904;6.038;2022-11-20T07:27:40;62.35;;;21.25;;
59418;SDS011;45224;50.904;6.038;2022-11-20T07:29:11;55.10;;;18.53;;
59418;SDS011;45224;50.904;6.038;2022-11-20T07:30:41;53.90;;;18.07;;
59418;SDS011;45224;50.904;6.038;2022-11-20T07:32:11;55.07;;;18.60;;
59418;SDS011;45224;50.904;6.038;2022-11-20T07:33:42;67.50;;;20.87;;
59418;SDS011;45224;50.904;6.038;2022-11-20T07:35:12;56.43;;;19.43;;
59418;SDS011;45224;50.904;6.038;2022-11-20T07:36:43;58.28;;;18.30;;
59418;SDS011;45224;50.904;6.038;2022-11-20T07:38:14;65.60;;;20.50;;
59418;SDS011;45224;50.904;6.038;2022-11-20T07:39:44;58.90;;;19.23;;
59418;SDS011;45224;50.904;6.038;2022-11-20T07:41:15;59.57;;;18.53;;
59418;SDS011;45224;50.904;6.038;2022-11-20T07:42:49;63.07;;;20.60;;
59418;SDS011;45224;50.904;6.038;2022-11-20T07:44:20;51.33;;;17.38;;
59418;SDS011;45224;50.904;6.038;2022-11-20T07:45:50;58.23;;;18.37;;
59418;SDS011;45224;50.904;6.038;2022-11-20T07:47:21;70.53;;;20.77;;
59418;SDS011;45224;50.904;6.038;2022-11-20T07:48:51;61.50;;;18.20;;
59418;SDS011;45224;50.904;6.038;2022-11-20T07:50:22;56.73;;;17.80;;
59418;SDS011;45224;50.904;6.038;2022-11-20T07:51:52;58.83;;;18.17;;
59418;SDS011;45224;50.904;6.038;2022-11-20T07:53:23;57.65;;;19.45;;
59418;SDS011;45224;50.904;6.038;2022-11-20T07:54:54;57.58;;;18.13;;
59418;SDS011;45224;50.904;6.038;2022-11-20T07:56:25;58.20;;;18.33;;
59418;SDS011;45224;50.904;6.038;2022-11-20T07:57:55;58.67;;;19.53;;
59418;SDS011;45224;50.904;6.038;2022-11-20T07:59:27;60.30;;;18.98;;
59418;SDS011;45224;50.904;6.038;2022-11-20T08:00:57;58.73;;;19.30;;
59418;SDS011;45224;50.904;6.038;2022-11-20T08:02:27;76.37;;;20.80;;
59418;SDS011;45224;50.904;6.038;2022-11-20T08:03:58;65.13;;;20.80;;
59418;SDS011;45224;50.904;6.038;2022-11-20T08:05:28;72.40;;;21.97;;
59418;SDS011;45224;50.904;6.038;2022-11-20T08:06:59;72.23;;;23.00;;
59418;SDS011;45224;50.904;6.038;2022-11-20T08:08:29;71.23;;;21.60;;
59418;SDS011;45224;50.904;6.038;2022-11-20T08:10:00;68.50;;;19.65;;
59418;SDS011;45224;50.904;6.038;2022-11-20T08:11:30;77.70;;;21.33;;
59418;SDS011;45224;50.904;6.038;2022-11-20T08:13:19;73.28;;;20.85;;
59418;SDS011;45224;50.904;6.038;2022-11-20T08:15:08;70.32;;;20.85;;
59418;SDS011;45224;50.904;6.038;2022-11-20T08:16:39;71.50;;;22.33;;
59418;SDS011;45224;50.904;6.038;2022-11-20T08:18:11;70.95;;;20.90;;
59418;SDS011;45224;50.904;6.038;2022-11-20T08:19:42;74.88;;;22.45;;
59418;SDS011;45224;50.904;6.038;2022-11-20T08:21:12;71.83;;;22.10;;
59418;SDS011;45224;50.904;6.038;2022-11-20T08:22:43;71.70;;;21.87;;
59418;SDS011;45224;50.904;6.038;2022-11-20T08:24:14;63.23;;;20.23;;
59418;SDS011;45224;50.904;6.038;2022-11-20T08:25:48;72.37;;;21.40;;
59418;SDS011;45224;50.904;6.038;2022-11-20T08:27:19;75.72;;;21.17;;
59418;SDS011;45224;50.904;6.038;2022-11-20T08:28:53;78.40;;;22.13;;
59418;SDS011;45224;50.904;6.038;2022-11-20T08:30:25;70.18;;;20.95;;
59418;SDS011;45224;50.904;6.038;2022-11-20T08:31:55;82.93;;;24.30;;
59418;SDS011;45224;50.904;6.038;2022-11-20T08:33:26;77.70;;;22.60;;
59418;SDS011;45224;50.904;6.038;2022-11-20T08:34:56;70.67;;;21.83;;
59418;SDS011;45224;50.904;6.038;2022-11-20T08:36:26;75.30;;;22.13;;
59418;SDS011;45224;50.904;6.038;2022-11-20T08:37:58;72.72;;;21.48;;
59418;SDS011;45224;50.904;6.038;2022-11-20T08:39:28;76.60;;;22.80;;
59418;SDS011;45224;50.904;6.038;2022-11-20T08:41:00;76.30;;;22.67;;
59418;SDS011;45224;50.904;6.038;2022-11-20T08:42:50;76.28;;;20.90;;
59418;SDS011;45224;50.904;6.038;2022-11-20T08:44:21;80.22;;;22.08;;
59418;SDS011;45224;50.904;6.038;2022-11-20T08:45:51;73.40;;;20.73;;
59418;SDS011;45224;50.904;6.038;2022-11-20T08:47:22;69.30;;;20.80;;
59418;SDS011;45224;50.904;6.038;2022-11-20T08:48:52;72.43;;;23.13;;
59418;SDS011;45224;50.904;6.038;2022-11-20T08:50:23;79.28;;;23.42;;
59418;SDS011;45224;50.904;6.038;2022-11-20T08:51:53;78.17;;;23.03;;
59418;SDS011;45224;50.904;6.038;2022-11-20T08:53:25;77.32;;;22.35;;
59418;SDS011;45224;50.904;6.038;2022-11-20T08:54:56;73.47;;;22.33;;
59418;SDS011;45224;50.904;6.038;2022-11-20T08:56:27;80.63;;;25.33;;
59418;SDS011;45224;50.904;6.038;2022-11-20T08:57:57;78.57;;;23.23;;
59418;SDS011;45224;50.904;6.038;2022-11-20T08:59:28;80.20;;;23.50;;
59418;SDS011;45224;50.904;6.038;2022-11-20T09:00:58;71.03;;;22.88;;
59418;SDS011;45224;50.904;6.038;2022-11-20T09:02:29;73.67;;;23.53;;